Time;durP1;ratioP1;P1;durP2;ratioP2;P2;SDS_P1;SDS_P2;PMS_P1;PMS_P2;Temp;Humidity;BMP_temperature;BMP_pressure;BME280_temperature;BME280_humidity;BME280_pressure;Samples;Min_cycle;Max_cycle;Signal;HPM_P1;HPM_P2
2023/10/13 00:02:05;;;;;;;16.65;7.05;;;;;;;18.17;100.00;98916.31;4450981;32;20129;-80
2023/10/13 00:04:35;;;;;;;17.85;7.10;;;;;;;18.16;100.00;98909.34;4451265;32;20143;-80
2023/10/13 00:07:04;;;;;;;16.20;7.65;;;;;;;18.16;100.00;98917.31;4451038;32;20152;-80
2023/10/13 00:09:37;;;;;;;17.23;7.93;;;;;;;18.11;100.00;98906.44;4451002;32;20101;-80
2023/10/13 00:12:14;;;;;;;14.07;6.50;;;;;;;18.09;100.00;98919.88;4451135;32;20121;-81
2023/10/13 00:14:45;;;;;;;13.95;7.40;;;;;;;18.04;100.00;98919.56;4451110;32;20139;-81
2023/10/13 00:17:20;;;;;;;17.83;7.07;;;;;;;17.97;100.00;98925.78;4450467;32;20250;-81
2023/10/13 00:19:51;;;;;;;16.80;7.18;;;;;;;17.93;100.00;98924.53;4451148;32;20453;-80
2023/10/13 00:22:19;;;;;;;14.80;7.15;;;;;;;17.88;100.00;98933.78;4451034;32;20128;-80
2023/10/13 00:24:47;;;;;;;12.45;7.00;;;;;;;17.86;100.00;98924.38;4451020;32;20176;-80
2023/10/13 00:27:41;;;;;;;15.48;7.20;;;;;;;17.85;100.00;98922.72;4452872;32;20116;-80
2023/10/13 00:32:51;;;;;;;12.45;6.97;;;;;;;17.82;100.00;98912.47;4484697;31;20434;-81
2023/10/13 00:35:25;;;;;;;24.60;8.52;;;;;;;17.80;100.00;98904.72;4484593;31;20469;-81
2023/10/13 00:37:55;;;;;;;16.37;6.80;;;;;;;17.76;100.00;98910.53;4484751;32;20084;-80
2023/10/13 00:43:34;;;;;;;12.20;7.12;;;;;;;17.88;100.00;98912.59;4484681;31;20141;-80
2023/10/13 00:45:57;;;;;;;14.52;7.10;;;;;;;17.77;100.00;98910.37;4482922;31;20523;-81
2023/10/13 00:48:32;;;;;;;15.02;7.60;;;;;;;17.77;100.00;98913.03;4484766;31;20084;-80
2023/10/13 00:51:06;;;;;;;18.05;8.00;;;;;;;17.83;100.00;98907.00;4483272;32;20496;-80
2023/10/13 00:53:39;;;;;;;12.73;6.62;;;;;;;17.90;100.00;98905.31;4479583;31;20100;-80
2023/10/13 00:56:08;;;;;;;12.55;6.78;;;;;;;17.91;100.00;98899.00;4467577;32;20386;-80
2023/10/13 00:58:39;;;;;;;15.23;7.07;;;;;;;17.94;100.00;98910.25;4468825;32;20097;-80
2023/10/13 01:01:18;;;;;;;14.25;7.62;;;;;;;17.97;100.00;98909.88;4468514;32;20077;-80
2023/10/13 01:03:59;;;;;;;15.50;7.70;;;;;;;18.05;100.00;98905.31;4468752;32;20127;-81
2023/10/13 01:06:29;;;;;;;16.83;6.97;;;;;;;18.12;100.00;98902.75;4468635;32;20831;-80
2023/10/13 01:09:12;;;;;;;17.00;7.62;;;;;;;18.13;100.00;98898.28;4467593;32;20119;-80
2023/10/13 01:11:52;;;;;;;13.90;7.35;;;;;;;18.16;100.00;98896.09;4468446;32;20095;-80
2023/10/13 01:14:23;;;;;;;12.73;7.22;;;;;;;18.22;100.00;98891.88;4468600;32;20089;-81
2023/10/13 01:16:55;;;;;;;18.20;7.50;;;;;;;18.21;100.00;98890.25;4479525;32;20167;-80
2023/10/13 01:19:27;;;;;;;15.10;7.53;;;;;;;18.23;100.00;98893.53;4484138;32;20089;-81
2023/10/13 01:22:03;;;;;;;17.00;7.43;;;;;;;18.19;100.00;98886.97;4483999;31;20085;-80
2023/10/13 01:24:34;;;;;;;16.45;6.80;;;;;;;18.22;100.00;98892.69;4484409;31;20092;-80
2023/10/13 01:27:16;;;;;;;12.63;6.93;;;;;;;18.23;100.00;98885.59;4484150;31;20517;-81
2023/10/13 01:29:48;;;;;;;18.75;7.12;;;;;;;18.22;100.00;98890.06;4485900;31;20092;-80
2023/10/13 01:32:18;;;;;;;12.25;6.75;;;;;;;18.29;100.00;98891.97;4485810;31;20861;-80
2023/10/13 01:34:46;;;;;;;15.18;6.95;;;;;;;18.31;100.00;98890.78;4485832;31;20430;-80
2023/10/13 01:37:15;;;;;;;13.30;6.82;;;;;;;18.37;100.00;98894.53;4485769;31;20100;-80
2023/10/13 01:39:47;;;;;;;13.38;5.93;;;;;;;18.37;100.00;98892.69;4485951;31;20557;-81
2023/10/13 01:42:21;;;;;;;15.30;6.97;;;;;;;18.41;100.00;98893.13;4485686;31;20072;-81
2023/10/13 01:44:50;;;;;;;12.95;6.35;;;;;;;18.43;100.00;98893.81;4485869;31;20096;-81
2023/10/13 01:47:18;;;;;;;20.88;6.75;;;;;;;18.43;100.00;98888.50;4485753;31;20118;-81
2023/10/13 01:49:50;;;;;;;12.20;6.25;;;;;;;18.37;100.00;98889.22;4485946;31;20080;-80
2023/10/13 01:52:19;;;;;;;13.03;6.57;;;;;;;18.27;100.00;98890.34;4485624;31;20151;-80
2023/10/13 01:54:48;;;;;;;24.52;7.72;;;;;;;18.17;100.00;98895.09;4472693;31;20189;-80
2023/10/13 01:57:17;;;;;;;13.77;6.28;;;;;;;18.14;100.00;98910.53;4469994;32;20084;-80
2023/10/13 01:59:48;;;;;;;16.20;6.40;;;;;;;18.10;100.00;98907.44;4470032;32;20152;-80
2023/10/13 02:02:28;;;;;;;10.25;6.05;;;;;;;18.04;100.00;98901.03;4469859;32;20089;-81
2023/10/13 02:05:00;;;;;;;10.50;6.00;;;;;;;18.02;100.00;98904.88;4470145;32;20448;-80
2023/10/13 02:07:34;;;;;;;13.15;5.90;;;;;;;17.98;100.00;98900.94;4469880;32;20108;-81
2023/10/13 02:10:06;;;;;;;12.48;5.95;;;;;;;17.97;100.00;98886.03;4470176;32;20093;-80
2023/10/13 02:12:44;;;;;;;10.30;6.07;;;;;;;18.02;100.00;98903.03;4469935;32;20093;-80
2023/10/13 02:15:13;;;;;;;15.60;6.12;;;;;;;17.98;100.00;98896.44;4470530;32;20528;-81
2023/10/13 02:17:41;;;;;;;13.75;5.70;;;;;;;17.84;100.00;98907.84;4485634;31;20100;-81
2023/10/13 02:20:15;;;;;;;11.23;5.45;;;;;;;17.95;100.00;98906.59;4485585;31;20473;-80
2023/10/13 02:22:49;;;;;;;11.12;5.28;;;;;;;18.05;100.00;98904.50;4485716;32;20133;-81
2023/10/13 02:25:35;;;;;;;14.87;5.50;;;;;;;18.06;100.00;98898.19;4485766;31;20081;-80
2023/10/13 02:28:07;;;;;;;18.73;5.90;;;;;;;18.08;100.00;98898.84;4485663;31;20080;-81
2023/10/13 02:30:44;;;;;;;13.02;5.47;;;;;;;18.14;100.00;98897.28;4485800;31;20089;-81
2023/10/13 02:33:12;;;;;;;13.82;5.32;;;;;;;18.00;100.00;98898.91;4486000;31;20088;-80
2023/10/13 02:35:58;;;;;;;10.75;5.35;;;;;;;17.95;100.00;98902.13;4485655;31;20097;-80
2023/10/13 02:41:11;;;;;;;14.60;5.12;;;;;;;17.80;100.00;98914.50;4485737;31;20147;-81
2023/10/13 02:43:39;;;;;;;9.90;4.82;;;;;;;17.77;100.00;98907.72;4485568;32;20081;-80
2023/10/13 02:46:07;;;;;;;13.80;4.95;;;;;;;17.75;100.00;98909.75;4485790;31;20093;-80
2023/10/13 02:48:40;;;;;;;12.50;4.80;;;;;;;17.76;100.00;98916.69;4485460;31;20758;-81
2023/10/13 02:51:17;;;;;;;13.55;5.20;;;;;;;17.79;100.00;98911.03;4485714;31;20464;-80
2023/10/13 02:53:48;;;;;;;13.75;5.20;;;;;;;17.85;100.00;98922.72;4479090;31;20088;-80
2023/10/13 02:56:22;;;;;;;12.40;4.80;;;;;;;17.97;100.00;98920.47;4469802;32;20077;-80
2023/10/13 02:58:53;;;;;;;11.02;4.65;;;;;;;18.06;100.00;98919.41;4469946;32;20146;-81
2023/10/13 03:01:22;;;;;;;12.88;5.00;;;;;;;18.17;100.00;98923.41;4469658;32;20156;-81
2023/10/13 03:03:58;;;;;;;11.73;5.45;;;;;;;18.29;100.00;98929.94;4469415;32;20097;-80
2023/10/13 03:06:32;;;;;;;13.73;5.05;;;;;;;18.39;100.00;98932.31;4469694;32;20186;-80
2023/10/13 03:12:01;;;;;;;13.65;5.37;;;;;;;18.53;100.00;98934.13;4451505;32;20615;-80
2023/10/13 03:14:31;;;;;;;10.00;5.07;;;;;;;18.51;100.00;98936.13;4451430;32;20166;-81
2023/10/13 03:17:08;;;;;;;9.30;5.07;;;;;;;18.53;100.00;98931.47;4463535;32;20105;-81
2023/10/13 03:19:39;;;;;;;12.35;4.80;;;;;;;18.56;100.00;98930.28;4466974;32;20097;-80
2023/10/13 03:22:11;;;;;;;8.82;4.68;;;;;;;18.56;100.00;98923.16;4467017;32;20163;-80
2023/10/13 03:24:46;;;;;;;12.60;4.60;;;;;;;18.56;100.00;98915.19;4467377;32;20096;-80
2023/10/13 03:27:22;;;;;;;9.82;4.00;;;;;;;18.53;100.00;98914.72;4467204;32;20536;-81
2023/10/13 03:29:56;;;;;;;8.15;4.43;;;;;;;18.54;100.00;98913.72;4454841;32;20105;-80
2023/10/13 03:32:26;;;;;;;9.73;4.50;;;;;;;18.56;100.00;98915.19;4467254;32;20158;-80
2023/10/13 03:37:39;;;;;;;9.30;5.05;;;;;;;18.57;100.00;98894.78;4466947;32;20108;-80
2023/10/13 03:43:12;;;;;;;9.95;5.15;;;;;;;18.68;100.00;98880.22;4466818;32;20540;-80
2023/10/13 03:45:42;;;;;;;12.55;5.57;;;;;;;18.73;100.00;98885.78;4466781;32;20092;-81
2023/10/13 03:51:06;;;;;;;10.38;4.95;;;;;;;18.73;100.00;98880.50;4484315;31;20083;-81
2023/10/13 03:53:34;;;;;;;11.02;5.32;;;;;;;18.76;100.00;98882.75;4479728;31;20093;-81
2023/10/13 03:56:12;;;;;;;10.35;5.37;;;;;;;18.73;100.00;98893.75;4469264;32;20081;-80
2023/10/13 03:58:42;;;;;;;8.70;4.93;;;;;;;18.73;100.00;98886.59;4469425;32;20085;-81
2023/10/13 04:01:11;;;;;;;21.30;5.43;;;;;;;18.78;100.00;98886.03;4469281;32;20080;-80
2023/10/13 04:03:43;;;;;;;15.35;6.22;;;;;;;18.73;100.00;98883.13;4469095;32;20131;-80
2023/10/13 04:06:16;;;;;;;11.70;6.03;;;;;;;18.41;100.00;98872.75;4469317;32;20426;-80
2023/10/13 04:08:48;;;;;;;14.70;7.20;;;;;;;18.36;100.00;98871.66;4469490;32;20142;-80
2023/10/13 04:16:54;;;;;;;18.20;7.95;;;;;;;18.05;100.00;98875.34;4473978;31;20340;-80
2023/10/13 04:19:28;;;;;;;20.12;8.27;;;;;;;17.96;100.00;98871.97;4469296;32;20093;-80
2023/10/13 04:21:59;;;;;;;14.80;8.40;;;;;;;17.89;100.00;98874.50;4469279;32;20073;-80
2023/10/13 04:25:00;;;;;;;16.02;8.10;;;;;;;17.78;100.00;98874.94;4483648;32;20108;-81
2023/10/13 04:27:39;;;;;;;22.58;9.20;;;;;;;17.88;100.00;98872.84;4484221;31;20498;-80
2023/10/13 04:32:38;;;;;;;21.08;10.05;;;;;;;17.66;100.00;98879.84;4483774;31;20101;-80
2023/10/13 04:38:01;;;;;;;20.00;9.88;;;;;;;17.54;100.00;98876.78;4484657;31;20138;-80
2023/10/13 04:40:35;;;;;;;18.75;9.15;;;;;;;17.54;100.00;98868.03;4483970;32;20093;-80
2023/10/13 04:43:17;;;;;;;19.20;8.90;;;;;;;17.51;100.00;98868.41;4484277;31;20490;-80
2023/10/13 04:45:54;;;;;;;14.82;8.98;;;;;;;17.38;100.00;98885.72;4482832;31;20084;-80
2023/10/13 04:50:53;;;;;;;17.40;8.40;;;;;;;17.46;100.00;98882.19;4483557;31;20093;-80
2023/10/13 04:53:33;;;;;;;19.23;8.73;;;;;;;17.45;100.00;98888.47;4484340;31;20568;-80
2023/10/13 05:45:36;;;;;;;20.05;11.70;;;;;;;17.38;100.00;98954.56;4482556;31;20108;-80
2023/10/13 05:48:19;;;;;;;19.87;11.38;;;;;;;17.42;100.00;98951.56;4472832;31;20095;-80
2023/10/13 05:50:57;;;;;;;22.87;12.57;;;;;;;17.41;100.00;98958.72;4475673;31;20123;-78
2023/10/13 06:29:35;;;;;;;23.60;11.50;;;;;;;17.91;100.00;98996.22;4472907;31;20097;-81
2023/10/13 06:32:10;;;;;;;28.83;11.05;;;;;;;17.91;100.00;98996.22;4467570;32;20131;-76
2023/10/13 06:34:45;;;;;;;18.75;9.77;;;;;;;17.90;100.00;99002.56;4467693;32;20614;-77
2023/10/13 06:37:22;;;;;;;18.15;10.52;;;;;;;17.94;100.00;99006.50;4466374;32;20102;-75
2023/10/13 06:39:56;;;;;;;19.50;9.48;;;;;;;17.94;100.00;99011.81;4471998;32;20809;-78
2023/10/13 06:42:28;;;;;;;18.23;9.63;;;;;;;17.97;100.00;99006.16;4467491;31;20145;-77
2023/10/13 06:44:56;;;;;;;19.48;10.25;;;;;;;18.03;100.00;99009.87;4470964;32;20492;-75
2023/10/13 06:47:24;;;;;;;15.40;9.40;;;;;;;18.07;100.00;99016.50;4467016;32;20134;-78
2023/10/13 06:49:56;;;;;;;17.80;9.00;;;;;;;18.13;100.00;99010.47;4476392;32;20108;-78
2023/10/13 06:52:29;;;;;;;20.35;9.43;;;;;;;18.19;100.00;99015.06;4470632;32;21984;-77
2023/10/13 06:55:03;;;;;;;19.60;9.43;;;;;;;18.20;100.00;99022.00;4474091;32;20634;-78
2023/10/13 06:57:35;;;;;;;27.00;10.63;;;;;;;18.24;100.00;99023.31;4472345;31;20085;-78
2023/10/13 07:00:07;;;;;;;15.82;9.07;;;;;;;18.35;100.00;99027.34;4474039;32;20150;-79
2023/10/13 07:02:35;;;;;;;20.67;8.75;;;;;;;18.41;100.00;99026.63;4469820;32;20126;-78
2023/10/13 07:05:11;;;;;;;17.58;8.57;;;;;;;18.47;100.00;99030.38;4469875;32;20119;-77
2023/10/13 07:07:40;;;;;;;13.68;7.60;;;;;;;18.54;100.00;99031.28;4475035;32;20092;-82
2023/10/13 07:10:12;;;;;;;17.02;8.45;;;;;;;18.57;100.00;99033.56;4471429;32;20168;-78
2023/10/13 07:12:43;;;;;;;17.62;7.47;;;;;;;18.58;100.00;99023.78;4470252;32;20136;-77
2023/10/13 07:15:19;;;;;;;17.85;7.70;;;;;;;18.64;100.00;99031.03;4471893;32;20149;-77
2023/10/13 07:17:47;;;;;;;16.02;7.45;;;;;;;18.73;100.00;99027.25;4466248;32;20226;-77
2023/10/13 07:20:23;;;;;;;13.95;7.03;;;;;;;18.76;100.00;99032.22;4466799;32;20111;-77
2023/10/13 07:22:57;;;;;;;12.85;7.32;;;;;;;18.86;100.00;99034.59;4473563;31;20146;-80
2023/10/13 07:25:26;;;;;;;18.30;6.20;;;;;;;18.94;100.00;99028.38;4466946;32;20092;-78
2023/10/13 07:27:56;;;;;;;16.02;7.55;;;;;;;19.07;100.00;99020.56;4473433;32;20104;-80
2023/10/13 07:30:27;;;;;;;12.55;7.05;;;;;;;19.25;100.00;99025.47;4473535;32;20099;-83
2023/10/13 07:32:59;;;;;;;13.82;6.32;;;;;;;19.37;100.00;99036.44;4469878;32;20812;-86
2023/10/13 07:35:31;;;;;;;13.18;6.43;;;;;;;19.54;100.00;99034.38;4473097;32;20085;-81
2023/10/13 07:38:00;;;;;;;17.25;7.45;;;;;;;19.72;100.00;99035.78;4471363;32;20100;-81
2023/10/13 07:43:10;;;;;;;16.17;6.43;;;;;;;19.96;100.00;99038.06;4472512;31;20132;-85
2023/10/13 07:45:40;;;;;;;14.23;6.68;;;;;;;19.97;100.00;99037.06;4467808;32;20096;-79
2023/10/13 07:48:20;;;;;;;13.75;6.22;;;;;;;19.97;100.00;99033.56;4474852;32;20081;-81
2023/10/13 07:51:06;;;;;;;13.32;6.28;;;;;;;19.99;100.00;99035.03;4470762;32;20100;-80
2023/10/13 07:53:35;;;;;;;19.23;6.65;;;;;;;20.00;100.00;99036.69;4472690;32;20105;-77
2023/10/13 07:56:11;;;;;;;15.40;6.87;;;;;;;20.05;100.00;99040.63;4471898;32;20115;-77
2023/10/13 07:58:47;;;;;;;14.77;7.03;;;;;;;20.12;100.00;99041.47;4474687;31;20145;-77
2023/10/13 08:01:18;;;;;;;13.73;6.37;;;;;;;20.25;100.00;99036.25;4469775;32;20097;-77
2023/10/13 08:03:47;;;;;;;18.23;6.37;;;;;;;20.36;100.00;99037.56;4468475;32;20104;-76
2023/10/13 08:08:54;;;;;;;15.83;5.63;;;;;;;20.60;100.00;99033.63;4473136;32;20383;-76
2023/10/13 08:13:58;;;;;;;23.10;6.37;;;;;;;21.05;100.00;99031.44;4474621;32;20123;-78
2023/10/13 08:16:59;;;;;;;25.02;6.78;;;;;;;21.20;99.98;99025.16;4470343;32;20144;-77
2023/10/13 08:19:28;;;;;;;22.70;6.47;;;;;;;21.27;99.64;99028.62;4468673;32;20163;-77
2023/10/13 08:22:23;;;;;;;31.37;7.37;;;;;;;21.36;98.10;99022.12;4468946;32;20171;-78
2023/10/13 08:30:26;;;;;;;22.37;9.07;;;;;;;22.14;99.77;99031.47;4473805;31;20104;-77
2023/10/13 08:32:54;;;;;;;24.55;9.32;;;;;;;22.23;99.55;99037.44;4471778;32;20122;-73
2023/10/13 08:35:33;;;;;;;31.42;11.07;;;;;;;22.28;97.34;99040.28;4472059;31;20089;-75
2023/10/13 08:38:13;;;;;;;60.63;13.38;;;;;;;22.37;95.99;99043.59;4472731;32;20108;-75
2023/10/13 08:44:03;;;;;;;24.55;11.40;;;;;;;22.53;95.28;99042.34;4473926;32;20100;-75
2023/10/13 08:47:03;;;;;;;36.55;12.43;;;;;;;22.93;95.09;99048.41;4470424;32;20219;-75
2023/10/13 08:49:29;;;;;;;33.63;11.25;;;;;;;23.09;93.58;99046.28;4469863;32;20100;-76
2023/10/13 08:52:06;;;;;;;40.67;11.85;;;;;;;23.01;92.61;99044.69;4469258;31;20085;-75
2023/10/13 08:55:03;;;;;;;25.15;8.70;;;;;;;23.12;93.10;99045.91;4484487;31;20516;-74
2023/10/13 08:57:32;;;;;;;31.80;8.48;;;;;;;23.34;89.57;99052.56;4474236;32;20738;-77
2023/10/13 09:00:27;;;;;;;16.58;8.00;;;;;;;23.48;86.55;99058.69;4473648;32;20112;-75
2023/10/13 09:05:42;;;;;;;35.00;8.82;;;;;;;23.58;86.47;99050.19;4473269;32;20793;-76
2023/10/13 09:08:16;;;;;;;53.08;11.15;;;;;;;23.64;88.29;99054.69;4473054;32;20169;-76
2023/10/13 09:11:05;;;;;;;55.40;11.93;;;;;;;23.86;86.96;99057.88;4473575;32;20085;-76
2023/10/13 09:13:45;;;;;;;38.83;12.00;;;;;;;24.01;88.63;99049.53;4472947;32;20088;-76
2023/10/13 09:19:06;;;;;;;26.02;10.65;;;;;;;23.98;86.41;99043.78;4474542;32;20114;-74
2023/10/13 09:24:17;;;;;;;48.75;11.65;;;;;;;23.83;86.11;99047.56;4473494;31;20454;-77
2023/10/13 09:26:49;;;;;;;28.83;10.85;;;;;;;23.82;86.05;99045.94;4472924;32;20469;-76
2023/10/13 09:29:18;;;;;;;44.08;11.18;;;;;;;24.34;84.27;99047.59;4470584;32;20118;-76
2023/10/13 09:31:50;;;;;;;39.28;11.65;;;;;;;24.79;85.06;99047.41;4473174;32;20160;-74
2023/10/13 09:34:20;;;;;;;57.85;10.63;;;;;;;25.27;82.92;99049.28;4469303;32;20134;-76
2023/10/13 09:36:55;;;;;;;38.92;10.73;;;;;;;25.37;81.13;99056.00;4473052;32;20089;-73
2023/10/13 09:39:40;;;;;;;56.10;11.38;;;;;;;25.34;80.30;99051.91;4474268;32;20119;-76
2023/10/13 09:42:10;;;;;;;54.90;12.85;;;;;;;25.32;81.94;99057.50;4471878;32;20100;-76
2023/10/13 09:44:40;;;;;;;27.48;9.10;;;;;;;25.42;81.91;99053.44;4471869;32;20072;-76
2023/10/13 09:47:17;;;;;;;31.98;10.25;;;;;;;25.46;79.25;99049.28;4472118;32;20088;-77
2023/10/13 09:49:45;;;;;;;32.92;10.98;;;;;;;25.57;81.11;99050.38;4472751;32;20108;-77
2023/10/13 09:52:19;;;;;;;29.25;10.70;;;;;;;25.63;79.47;99050.28;4474583;32;20112;-74
2023/10/13 09:54:59;;;;;;;25.90;10.43;;;;;;;25.51;78.30;99057.44;4470485;32;20105;-74
2023/10/13 09:57:36;;;;;;;32.70;11.12;;;;;;;25.32;80.63;99059.38;4474587;32;20168;-73
2023/10/13 10:03:14;;;;;;;33.38;11.02;;;;;;;24.34;83.70;99047.59;4472772;32;20104;-75
2023/10/13 10:05:49;;;;;;;39.08;12.35;;;;;;;24.46;85.95;99037.81;4473364;32;20083;-74
2023/10/13 10:08:33;;;;;;;26.85;11.85;;;;;;;24.66;82.79;99034.13;4476765;32;20537;-74
2023/10/13 10:11:11;;;;;;;25.50;12.93;;;;;;;24.49;83.71;99033.87;4476601;32;20096;-75
2023/10/13 10:13:53;;;;;;;29.45;12.70;;;;;;;24.74;82.04;99032.00;4478205;31;20507;-74
2023/10/13 10:16:46;;;;;;;25.12;12.73;;;;;;;24.80;80.64;99041.00;4479614;32;20085;-76
2023/10/13 10:19:14;;;;;;;25.33;13.55;;;;;;;24.62;81.81;99037.25;4483612;32;20116;-75
2023/10/13 10:21:43;;;;;;;24.83;13.52;;;;;;;24.67;81.72;99033.09;4483539;31;20208;-74
2023/10/13 10:24:29;;;;;;;21.05;12.45;;;;;;;24.67;81.28;99033.09;4481717;32;20092;-73
2023/10/13 10:26:57;;;;;;;26.77;13.48;;;;;;;24.63;82.12;99030.03;4482425;31;20157;-75
2023/10/13 10:29:24;;;;;;;24.63;12.35;;;;;;;24.62;82.78;99031.91;4483796;31;20092;-73
2023/10/13 10:31:51;;;;;;;24.12;12.15;;;;;;;24.82;82.53;99022.03;4484558;31;20478;-74
2023/10/13 10:34:19;;;;;;;20.52;12.02;;;;;;;25.03;81.29;99020.75;4476325;32;20863;-76
2023/10/13 10:36:48;;;;;;;29.50;11.65;;;;;;;25.19;82.09;99013.94;4483189;32;20100;-76
2023/10/13 10:39:17;;;;;;;25.37;12.35;;;;;;;25.11;83.69;99013.19;4484282;31;20499;-78
2023/10/13 10:41:51;;;;;;;22.87;11.95;;;;;;;25.32;79.92;99011.91;4479644;32;20100;-77
2023/10/13 10:44:33;;;;;;;19.67;10.52;;;;;;;25.42;81.63;99000.66;4482240;31;20096;-78
2023/10/13 10:47:19;;;;;;;17.67;9.23;;;;;;;25.42;80.23;99002.50;4478517;32;20771;-78
2023/10/13 10:49:47;;;;;;;17.48;8.80;;;;;;;25.36;81.37;99000.72;4482767;32;20100;-78
2023/10/13 10:52:20;;;;;;;23.67;10.07;;;;;;;25.30;76.67;98999.78;4482416;32;20602;-76
2023/10/13 10:54:58;;;;;;;21.40;10.47;;;;;;;25.19;77.43;98993.28;4483173;31;20091;-74
2023/10/13 10:57:28;;;;;;;21.42;9.35;;;;;;;25.10;78.28;98989.28;4483096;32;20114;-78
2023/10/13 11:00:12;;;;;;;25.08;9.80;;;;;;;25.17;78.72;98992.69;4480974;32;20100;-77
2023/10/13 11:02:56;;;;;;;21.77;8.80;;;;;;;25.14;79.10;98991.28;4480219;31;20105;-79
2023/10/13 11:05:32;;;;;;;20.33;8.18;;;;;;;25.29;78.44;98992.75;4478312;32;20541;-78
2023/10/13 11:08:02;;;;;;;20.77;8.60;;;;;;;25.38;76.53;98993.28;4483426;31;20092;-78
2023/10/13 11:10:31;;;;;;;18.50;8.20;;;;;;;25.68;78.41;98995.94;4482478;31;20095;-79
2023/10/13 11:13:14;;;;;;;20.00;7.85;;;;;;;25.98;76.45;98995.03;4477403;32;20084;-79
2023/10/13 11:15:46;;;;;;;17.73;7.25;;;;;;;25.97;74.23;98991.53;4477601;31;20458;-78
2023/10/13 11:18:23;;;;;;;17.05;7.15;;;;;;;25.47;73.38;98979.31;4484029;31;20106;-79
2023/10/13 11:20:55;;;;;;;18.45;7.00;;;;;;;25.80;73.60;98980.66;4481360;31;20104;-77
2023/10/13 11:23:25;;;;;;;18.60;6.55;;;;;;;25.99;71.05;98981.41;4479040;31;20092;-76
2023/10/13 11:25:59;;;;;;;16.45;6.75;;;;;;;26.36;67.06;98978.47;4473306;32;20169;-78
2023/10/13 11:28:27;;;;;;;14.27;5.72;;;;;;;26.55;64.00;98972.97;4477643;32;20466;-79
2023/10/13 11:30:59;;;;;;;10.55;5.18;;;;;;;26.92;61.67;98975.38;4479234;32;20521;-79
2023/10/13 11:33:28;;;;;;;17.60;6.22;;;;;;;27.14;58.31;98977.38;4480841;31;20519;-78
2023/10/13 11:35:57;;;;;;;10.63;5.78;;;;;;;27.41;56.88;98972.25;4481978;31;20104;-79
2023/10/13 11:38:34;;;;;;;11.88;5.95;;;;;;;27.74;56.46;98971.47;4481811;31;20107;-78
2023/10/13 11:48:46;;;;;;;13.88;4.75;;;;;;;28.53;53.14;98968.84;4473920;31;20751;-78
2023/10/13 11:51:23;;;;;;;12.98;4.40;;;;;;;28.28;51.32;98970.94;4484232;31;20093;-78
2023/10/13 11:53:51;;;;;;;13.57;4.45;;;;;;;28.54;49.95;98978.53;4483243;31;20105;-78
2023/10/13 11:56:24;;;;;;;15.32;4.50;;;;;;;28.53;48.89;98974.22;4473816;32;20104;-78
2023/10/13 11:58:51;;;;;;;15.27;4.35;;;;;;;28.31;48.47;98975.84;4473695;31;20088;-78
2023/10/13 12:01:20;;;;;;;9.65;4.12;;;;;;;28.37;50.45;98965.13;4474613;32;20126;-79
2023/10/13 12:06:59;;;;;;;15.82;4.35;;;;;;;28.43;49.48;98964.94;4478110;32;20100;-78
2023/10/13 12:11:54;;;;;;;9.50;4.72;;;;;;;28.40;49.79;98961.94;4473994;32;20374;-78
2023/10/13 12:14:29;;;;;;;13.15;4.60;;;;;;;28.23;50.33;98961.97;4479447;31;20457;-78
2023/10/13 12:17:03;;;;;;;14.85;4.95;;;;;;;28.12;51.18;98959.13;4475816;32;20096;-78
2023/10/13 12:19:34;;;;;;;11.65;4.60;;;;;;;28.08;50.50;98957.97;4483640;32;20076;-77
2023/10/13 12:22:08;;;;;;;17.17;5.30;;;;;;;28.06;50.58;98962.81;4476494;31;20180;-77
2023/10/13 12:27:23;;;;;;;13.65;4.80;;;;;;;28.21;50.67;98954.13;4476540;31;20112;-78
2023/10/13 12:29:56;;;;;;;13.52;5.53;;;;;;;28.00;49.59;98950.34;4476848;31;20450;-78
2023/10/13 12:32:25;;;;;;;12.27;4.93;;;;;;;28.24;51.36;98942.88;4476991;32;20092;-78
2023/10/13 12:54:04;;;;;;;17.35;5.78;;;;;;;28.11;50.05;98927.84;4472685;32;20450;-78
2023/10/13 12:56:32;;;;;;;9.18;4.37;;;;;;;27.83;51.31;98925.25;4475501;31;20088;-78
2023/10/13 12:59:00;;;;;;;14.87;4.82;;;;;;;27.66;51.34;98925.28;4476074;32;20104;-78
2023/10/13 13:01:34;;;;;;;10.15;4.78;;;;;;;27.61;52.60;98918.75;4473243;32;20153;-78
2023/10/13 13:04:03;;;;;;;11.12;4.82;;;;;;;27.80;52.97;98915.81;4474889;32;20100;-76
2023/10/13 13:06:31;;;;;;;10.88;4.80;;;;;;;27.90;52.31;98912.44;4473530;31;20160;-77
2023/10/13 13:09:00;;;;;;;13.65;4.57;;;;;;;28.12;53.18;98899.06;4482187;32;20595;-78
2023/10/13 13:11:31;;;;;;;7.60;4.70;;;;;;;28.26;52.67;98902.22;4482465;32;20096;-78
2023/10/13 13:13:59;;;;;;;15.63;4.78;;;;;;;28.21;51.97;98900.25;4482321;31;20516;-77
2023/10/13 13:16:30;;;;;;;8.68;4.62;;;;;;;28.20;50.83;98900.50;4478860;32;20163;-77
2023/10/13 13:18:58;;;;;;;8.10;3.92;;;;;;;28.11;53.16;98902.81;4482354;32;20089;-76
2023/10/13 13:21:27;;;;;;;11.40;4.90;;;;;;;28.13;50.92;98897.97;4481849;31;20532;-76
2023/10/13 13:23:54;;;;;;;12.40;4.55;;;;;;;28.08;49.63;98900.62;4481539;31;20104;-76
2023/10/13 13:26:23;;;;;;;14.45;4.47;;;;;;;28.18;50.09;98906.16;4482554;32;20096;-78
2023/10/13 13:28:51;;;;;;;14.70;4.15;;;;;;;28.13;50.93;98897.97;4481690;31;20169;-79
2023/10/13 13:31:25;;;;;;;11.77;4.50;;;;;;;28.27;51.51;98906.53;4480090;31;20115;-83
2023/10/13 13:33:53;;;;;;;13.93;4.55;;;;;;;28.35;50.19;98906.09;4482510;32;20101;-82
2023/10/13 13:36:22;;;;;;;9.73;4.03;;;;;;;28.15;50.61;98902.06;4480681;31;80651;-81
2023/10/13 13:38:50;;;;;;;44.38;6.20;;;;;;;28.18;50.16;98905.31;4482974;31;20088;-81
2023/10/13 13:41:18;;;;;;;20.52;4.22;;;;;;;27.55;50.90;98902.78;4481870;31;20085;-81
2023/10/13 13:46:27;;;;;;;22.20;5.00;;;;;;;27.29;52.14;98904.22;4478995;32;20417;-81
2023/10/13 13:48:59;;;;;;;15.13;4.50;;;;;;;27.23;51.86;98895.22;4483130;31;20100;-81
2023/10/13 13:51:27;;;;;;;15.52;3.75;;;;;;;27.16;52.32;98900.78;4482262;31;20111;-81
2023/10/13 13:53:56;;;;;;;12.15;4.47;;;;;;;27.26;53.01;98898.25;4475942;31;20101;-81
2023/10/13 13:56:28;;;;;;;14.40;4.47;;;;;;;27.20;52.53;98891.16;4476892;32;20517;-81
2023/10/13 13:59:07;;;;;;;14.20;4.05;;;;;;;27.12;52.76;98891.56;4482496;32;20111;-81
2023/10/13 14:01:37;;;;;;;16.60;4.35;;;;;;;26.98;52.88;98891.06;4482033;32;20110;-82
2023/10/13 14:04:06;;;;;;;28.42;4.68;;;;;;;26.67;52.07;98887.78;4482292;32;20825;-82
2023/10/13 14:06:34;;;;;;;7.45;3.80;;;;;;;26.79;50.64;98889.63;4482701;31;20120;-81
2023/10/13 14:09:15;;;;;;;13.70;3.55;;;;;;;26.93;49.60;98880.19;4481300;31;20108;-81
2023/10/13 14:14:33;;;;;;;13.73;3.67;;;;;;;27.19;51.70;98886.00;4481525;32;20160;-82
2023/10/13 14:17:07;;;;;;;13.00;4.40;;;;;;;27.25;51.14;98883.19;4480357;31;20163;-82
2023/10/13 14:19:40;;;;;;;12.37;3.92;;;;;;;27.23;52.17;98887.97;4482306;32;20104;-80
2023/10/13 14:22:12;;;;;;;12.45;3.92;;;;;;;27.19;53.73;98877.94;4483477;31;20355;-80
2023/10/13 14:24:44;;;;;;;14.32;4.12;;;;;;;27.18;53.64;98869.06;4481700;32;20571;-80
2023/10/13 14:27:15;;;;;;;11.75;4.15;;;;;;;26.99;53.05;98875.72;4481307;31;20446;-80
2023/10/13 14:29:44;;;;;;;10.95;3.75;;;;;;;26.80;52.37;98869.72;4483118;31;20104;-80
2023/10/13 14:32:14;;;;;;;19.48;4.85;;;;;;;26.65;54.04;98857.63;4483243;31;20127;-80
2023/10/13 14:34:45;;;;;;;14.93;5.03;;;;;;;26.69;53.97;98860.66;4482992;31;20160;-79
2023/10/13 14:37:14;;;;;;;14.27;4.60;;;;;;;26.64;54.85;98864.03;4484567;31;20100;-79
2023/10/13 14:39:43;;;;;;;19.75;5.18;;;;;;;26.67;53.82;98860.09;4483011;32;20119;-79
2023/10/13 14:42:10;;;;;;;17.58;4.82;;;;;;;26.67;54.57;98855.53;4484963;31;20093;-79
2023/10/13 14:44:38;;;;;;;12.20;4.05;;;;;;;26.66;53.28;98847.69;4485078;31;20153;-79
2023/10/13 14:47:05;;;;;;;15.80;4.40;;;;;;;26.66;53.42;98853.06;4485503;31;20130;-79
2023/10/13 14:49:35;;;;;;;12.60;3.83;;;;;;;26.65;53.84;98846.88;4484771;31;20525;-80
2023/10/13 14:52:02;;;;;;;8.00;3.85;;;;;;;26.67;52.43;98844.78;4485447;31;20122;-79
2023/10/13 14:54:32;;;;;;;12.73;4.07;;;;;;;26.54;52.05;98845.03;4481078;31;20093;-80